createdAt,value
2023-03-28T00:02:15.745Z,0.38
2023-03-28T00:06:01.598Z,0.30
2023-03-28T00:09:44.670Z,0.25
2023-03-28T00:13:29.825Z,0.18
2023-03-28T00:17:12.619Z,0.17
2023-03-28T00:20:55.451Z,0.16
2023-03-28T00:24:38.958Z,0.14
2023-03-28T00:28:21.689Z,0.15
2023-03-28T00:32:06.358Z,0.19
2023-03-28T00:35:49.175Z,0.29
2023-03-28T00:39:31.910Z,0.32
2023-03-28T00:43:15.161Z,0.39
2023-03-28T00:46:57.961Z,0.45
2023-03-28T00:50:46.946Z,0.39
2023-03-28T00:54:33.146Z,0.40
2023-03-28T00:58:18.820Z,0.42
2023-03-28T01:02:01.831Z,0.40
2023-03-28T01:05:47.885Z,0.46
2023-03-28T01:09:30.931Z,0.46
2023-03-28T01:13:15.379Z,0.45
2023-03-28T01:16:58.114Z,0.46
2023-03-28T01:20:58.413Z,0.54
2023-03-28T01:25:20.884Z,0.58
2023-03-28T01:29:40.922Z,0.55
2023-03-28T01:33:48.031Z,0.47
2023-03-28T01:37:38.041Z,0.42
2023-03-28T01:41:24.883Z,0.34
2023-03-28T01:45:11.603Z,0.28
2023-03-28T01:48:58.986Z,0.34
2023-03-28T01:52:48.925Z,0.26
2023-03-28T01:56:37.837Z,0.18
2023-03-28T02:00:23.518Z,0.17
2023-03-28T02:04:20.478Z,0.14
2023-03-28T02:08:08.346Z,0.09
2023-03-28T02:11:54.238Z,0.04
2023-03-28T02:15:40.096Z,-0.08
2023-03-28T02:19:25.039Z,-0.22
2023-03-28T02:23:11.090Z,-0.22
2023-03-28T02:26:56.285Z,-0.18
2023-03-28T02:30:40.113Z,-0.19
2023-03-28T02:34:22.826Z,-0.28
2023-03-28T02:38:12.910Z,-0.26
2023-03-28T02:42:15.882Z,-0.27
2023-03-28T02:46:13.711Z,-0.38
2023-03-28T02:50:03.363Z,-0.51
2023-03-28T02:54:01.713Z,-0.45
2023-03-28T02:57:47.145Z,-0.44
2023-03-28T03:01:30.075Z,-0.47
2023-03-28T03:05:13.881Z,-0.55
2023-03-28T03:08:57.978Z,-0.50
2023-03-28T03:12:41.541Z,-0.47
2023-03-28T03:16:24.685Z,-0.48
2023-03-28T03:20:08.716Z,-0.51
2023-03-28T03:23:51.414Z,-0.55
2023-03-28T03:27:36.776Z,-0.55
2023-03-28T03:31:19.753Z,-0.67
2023-03-28T03:35:02.575Z,-0.74
2023-03-28T03:38:45.350Z,-0.72
2023-03-28T03:42:28.066Z,-0.77
2023-03-28T03:46:12.248Z,-0.84
2023-03-28T03:49:55.212Z,-0.80
2023-03-28T03:53:39.682Z,-0.78
2023-03-28T03:57:22.552Z,-0.80
2023-03-28T04:01:05.622Z,-0.84
2023-03-28T04:04:49.693Z,-0.87
2023-03-28T04:08:32.377Z,-0.86
2023-03-28T04:12:15.019Z,-0.91
2023-03-28T04:15:57.927Z,-0.90
2023-03-28T04:19:41.502Z,-0.87
2023-03-28T04:23:26.524Z,-0.92
2023-03-28T04:27:09.785Z,-0.92
2023-03-28T04:30:54.479Z,-0.93
2023-03-28T04:34:39.091Z,-0.95
2023-03-28T04:38:23.683Z,-0.92
2023-03-28T04:42:08.656Z,-0.94
2023-03-28T04:45:51.359Z,-0.93
2023-03-28T04:49:34.057Z,-0.89
2023-03-28T04:53:17.395Z,-0.90
2023-03-28T04:57:00.154Z,-0.95
2023-03-28T05:00:44.376Z,-0.98
2023-03-28T05:04:27.926Z,-0.98
2023-03-28T05:08:11.154Z,-1.02
2023-03-28T05:11:53.828Z,-1.03
2023-03-28T05:15:36.519Z,-1.06
2023-03-28T05:19:20.884Z,-1.06
2023-03-28T05:23:06.493Z,-1.08
2023-03-28T05:26:49.168Z,-1.10
2023-03-28T05:30:32.045Z,-1.14
2023-03-28T05:34:14.654Z,-1.11
2023-03-28T05:37:58.722Z,-1.07
2023-03-28T05:41:41.387Z,-1.05
2023-03-28T05:45:24.022Z,-0.99
2023-03-28T05:49:06.642Z,-0.98
2023-03-28T05:52:49.364Z,-0.90
2023-03-28T05:56:35.695Z,-0.85
2023-03-28T06:00:19.777Z,-0.85
2023-03-28T06:04:02.474Z,-0.79
2023-03-28T06:07:45.194Z,-0.69
2023-03-28T06:11:28.266Z,-0.69
2023-03-28T06:15:13.076Z,-0.67
2023-03-28T06:19:03.995Z,-0.54
2023-03-28T06:22:53.454Z,-0.44
2023-03-28T06:26:36.117Z,-0.47
2023-03-28T06:30:20.297Z,-0.40
2023-03-28T06:34:02.996Z,-0.32
2023-03-28T06:37:45.640Z,-0.23
2023-03-28T06:41:28.323Z,-0.15
2023-03-28T06:45:11.847Z,-0.04
2023-03-28T06:48:55.978Z,0.09
2023-03-28T06:52:38.713Z,0.17
2023-03-28T06:56:21.391Z,0.12
2023-03-28T07:00:04.677Z,0.05
2023-03-28T07:03:48.751Z,0.19
2023-03-28T07:07:34.736Z,0.33
2023-03-28T07:11:17.369Z,0.24
2023-03-28T07:15:00.033Z,0.25
2023-03-28T07:18:42.700Z,0.26
2023-03-28T07:22:25.400Z,0.26
2023-03-28T07:26:10.961Z,0.36
2023-03-28T07:29:53.650Z,0.47
2023-03-28T07:33:38.259Z,0.51
2023-03-28T07:37:21.161Z,0.52
2023-03-28T07:41:04.459Z,0.62
2023-03-28T07:44:48.449Z,0.74
2023-03-28T07:48:31.703Z,0.73
2023-03-28T07:52:14.866Z,0.89
2023-03-28T07:55:57.505Z,1.09
2023-03-28T07:59:40.179Z,1.18
2023-03-28T08:03:24.511Z,1.42
2023-03-28T08:07:07.808Z,1.39
2023-03-28T08:10:51.418Z,1.46
2023-03-28T08:14:34.326Z,1.43
2023-03-28T08:18:20.887Z,1.38
2023-03-28T08:22:05.608Z,1.34
2023-03-28T08:25:48.278Z,1.26
2023-03-28T08:29:31.090Z,1.27
2023-03-28T08:33:13.895Z,1.30
2023-03-28T08:36:57.683Z,1.38
2023-03-28T08:40:48.417Z,1.58
2023-03-28T08:44:58.379Z,1.58
2023-03-28T08:48:43.139Z,1.82
2023-03-28T08:52:25.895Z,1.97
2023-03-28T08:56:10.922Z,2.04
2023-03-28T08:59:55.582Z,2.04
2023-03-28T09:03:38.320Z,2.12
2023-03-28T09:07:30.561Z,2.17
2023-03-28T09:11:23.070Z,2.36
2023-03-28T09:15:34.165Z,2.52
2023-03-28T09:19:36.939Z,2.42
2023-03-28T09:24:01.648Z,2.45
2023-03-28T09:27:50.527Z,2.53
2023-03-28T09:31:34.645Z,2.48
2023-03-28T09:35:19.356Z,2.60
2023-03-28T09:39:03.185Z,2.94
2023-03-28T09:42:53.202Z,3.25
2023-03-28T09:46:41.024Z,3.12
2023-03-28T09:50:23.704Z,2.99
2023-03-28T09:54:08.044Z,2.90
2023-03-28T09:58:05.771Z,2.94
2023-03-28T10:01:51.573Z,2.98
2023-03-28T10:05:38.021Z,3.03
2023-03-28T10:09:22.975Z,3.08
2023-03-28T10:13:07.012Z,2.94
2023-03-28T10:16:52.580Z,3.01
2023-03-28T10:20:37.815Z,3.15
2023-03-28T10:24:22.670Z,3.33
2023-03-28T10:28:09.034Z,3.25
2023-03-28T10:31:51.881Z,3.26
2023-03-28T10:35:35.086Z,3.42
2023-03-28T10:39:22.906Z,3.66
2023-03-28T10:43:13.180Z,3.71
2023-03-28T10:46:56.744Z,3.67
2023-03-28T10:50:43.587Z,3.67
2023-03-28T10:54:42.800Z,3.70
2023-03-28T10:58:33.003Z,3.91
2023-03-28T11:02:31.230Z,3.86
2023-03-28T11:06:18.330Z,3.80
2023-03-28T11:10:08.499Z,3.79
2023-03-28T11:13:56.805Z,3.87
2023-03-28T11:17:49.178Z,3.73
2023-03-28T11:21:37.857Z,3.64
2023-03-28T11:25:22.426Z,3.55
2023-03-28T11:29:18.395Z,3.67
2023-03-28T11:33:05.055Z,3.83
2023-03-28T11:36:51.360Z,3.87
2023-03-28T11:40:37.550Z,3.88
2023-03-28T11:44:26.472Z,3.91
2023-03-28T11:48:11.986Z,3.90
2023-03-28T11:51:59.538Z,3.92
2023-03-28T11:55:47.728Z,3.94
2023-03-28T11:59:38.573Z,3.94
2023-03-28T12:03:24.970Z,4.08
2023-03-28T12:07:12.317Z,4.06
2023-03-28T12:10:58.801Z,4.21
2023-03-28T12:14:50.944Z,4.55
2023-03-28T12:18:36.089Z,4.67
2023-03-28T12:22:22.618Z,4.86
2023-03-28T12:26:18.125Z,5.07
2023-03-28T12:30:06.762Z,5.28
2023-03-28T12:33:55.928Z,5.54
2023-03-28T12:37:43.323Z,5.73
2023-03-28T12:41:28.855Z,6.06
2023-03-28T12:45:17.070Z,6.16
2023-03-28T12:49:02.103Z,6.18
2023-03-28T12:52:46.675Z,6.13
2023-03-28T12:56:29.527Z,6.23
2023-03-28T13:00:23.682Z,6.59
2023-03-28T13:04:15.430Z,6.73
2023-03-28T13:08:01.617Z,6.84
2023-03-28T13:11:52.679Z,6.86
2023-03-28T13:15:51.107Z,6.68
2023-03-28T13:19:39.327Z,6.83
2023-03-28T13:23:29.712Z,7.00
2023-03-28T13:27:13.754Z,7.20
2023-03-28T13:31:21.071Z,7.40
2023-03-28T13:35:05.566Z,7.36
2023-03-28T13:38:50.729Z,7.52
2023-03-28T13:42:34.729Z,7.58
2023-03-28T13:46:20.626Z,7.70
2023-03-28T13:50:06.772Z,7.78
2023-03-28T13:53:49.632Z,7.72
2023-03-28T13:57:32.284Z,8.06
2023-03-28T14:01:17.328Z,8.17
2023-03-28T14:05:14.153Z,8.25
2023-03-28T14:09:00.385Z,8.44
2023-03-28T14:12:44.618Z,8.42
2023-03-28T14:16:27.226Z,8.51
2023-03-28T14:20:17.435Z,8.55
2023-03-28T14:24:01.411Z,8.49
2023-03-28T14:27:45.742Z,8.57
2023-03-28T14:31:33.112Z,8.72
2023-03-28T14:35:21.044Z,8.58
2023-03-28T14:39:13.360Z,8.45
2023-03-28T14:43:01.764Z,8.37
2023-03-28T14:46:44.480Z,8.54
2023-03-28T14:50:32.036Z,8.59
2023-03-28T14:54:16.802Z,8.22
2023-03-28T14:58:00.478Z,8.17
2023-03-28T15:01:44.547Z,8.15
2023-03-28T15:05:29.554Z,8.05
2023-03-28T15:09:27.558Z,7.89
2023-03-28T15:13:14.091Z,8.31
2023-03-28T15:16:57.097Z,8.19
2023-03-28T15:20:45.979Z,7.61
2023-03-28T15:24:29.698Z,7.46
2023-03-28T15:28:16.258Z,7.38
2023-03-28T15:32:03.489Z,7.22
2023-03-28T15:35:47.720Z,7.27
2023-03-28T15:39:31.924Z,7.24
2023-03-28T15:43:37.619Z,7.25
2023-03-28T15:47:22.580Z,7.34
2023-03-28T15:51:07.950Z,7.32
2023-03-28T15:54:53.395Z,7.42
2023-03-28T15:58:42.377Z,7.73
2023-03-28T16:02:33.620Z,8.07
2023-03-28T16:06:30.624Z,8.20
2023-03-28T16:10:16.995Z,8.32
2023-03-28T16:14:02.121Z,8.34
2023-03-28T16:17:45.233Z,8.41
2023-03-28T16:21:29.440Z,8.68
2023-03-28T16:25:12.424Z,8.82
2023-03-28T16:28:55.029Z,8.97
2023-03-28T16:32:37.718Z,9.12
2023-03-28T16:36:20.407Z,9.22
2023-03-28T16:40:04.948Z,9.25
2023-03-28T16:43:47.946Z,9.12
2023-03-28T16:47:30.894Z,8.98
2023-03-28T16:51:13.590Z,8.81
2023-03-28T16:54:56.268Z,8.70
2023-03-28T16:58:40.578Z,8.52
2023-03-28T17:02:23.268Z,8.37
2023-03-28T17:06:08.316Z,8.15
2023-03-28T17:09:51.022Z,7.99
2023-03-28T17:13:34.169Z,7.84
2023-03-28T17:17:19.218Z,7.77
2023-03-28T17:21:03.509Z,7.54
2023-03-28T17:24:46.871Z,7.47
2023-03-28T17:28:30.440Z,7.40
2023-03-28T17:32:13.401Z,7.37
2023-03-28T17:35:57.501Z,7.24
2023-03-28T17:39:40.880Z,7.16
2023-03-28T17:43:23.521Z,7.09
2023-03-28T17:47:06.317Z,7.00
2023-03-28T17:50:52.867Z,6.88
2023-03-28T17:54:36.922Z,6.78
2023-03-28T17:58:19.720Z,6.70
2023-03-28T18:02:02.973Z,6.64
2023-03-28T18:05:48.965Z,6.61
2023-03-28T18:09:31.744Z,6.60
2023-03-28T18:13:16.126Z,6.60
2023-03-28T18:16:58.728Z,6.56
2023-03-28T18:20:43.226Z,6.52
2023-03-28T18:24:26.657Z,6.50
2023-03-28T18:28:09.437Z,6.49
2023-03-28T18:31:53.470Z,6.45
2023-03-28T18:35:36.202Z,6.42
2023-03-28T18:39:18.937Z,6.44
2023-03-28T18:43:02.011Z,6.43
2023-03-28T18:46:44.711Z,6.29
2023-03-28T18:50:29.660Z,6.15
2023-03-28T18:54:12.313Z,6.11
2023-03-28T18:57:55.341Z,6.08
2023-03-28T19:01:41.163Z,6.06
2023-03-28T19:05:25.336Z,6.04
2023-03-28T19:09:09.374Z,5.96
2023-03-28T19:12:53.757Z,5.92
2023-03-28T19:16:37.150Z,5.84
2023-03-28T19:20:20.031Z,5.69
2023-03-28T19:24:02.645Z,5.53
2023-03-28T19:27:49.523Z,5.38
2023-03-28T19:31:32.421Z,5.22
2023-03-28T19:35:15.082Z,5.09
2023-03-28T19:38:57.710Z,5.01
2023-03-28T19:42:40.423Z,4.96
2023-03-28T19:46:34.746Z,4.94
2023-03-28T19:50:19.996Z,4.95
2023-03-28T19:54:02.682Z,4.99
2023-03-28T19:57:45.536Z,5.00
2023-03-28T20:01:29.580Z,4.93
2023-03-28T20:05:12.248Z,4.87
2023-03-28T20:08:55.006Z,4.86
2023-03-28T20:12:39.851Z,4.84
2023-03-28T20:16:22.674Z,4.76
2023-03-28T20:20:10.140Z,4.71
2023-03-28T20:23:53.938Z,4.56
2023-03-28T20:27:37.697Z,4.48
2023-03-28T20:31:20.501Z,4.44
2023-03-28T20:35:03.233Z,4.45
2023-03-28T20:38:47.547Z,4.44
2023-03-28T20:42:31.225Z,4.42
2023-03-28T20:46:14.486Z,4.42
2023-03-28T20:49:59.175Z,4.44
2023-03-28T20:53:45.493Z,4.47
2023-03-28T20:57:30.344Z,4.45
2023-03-28T21:01:14.142Z,4.46
2023-03-28T21:04:56.800Z,4.43
2023-03-28T21:08:39.503Z,4.37
2023-03-28T21:12:22.208Z,6.29
2023-03-28T21:16:07.287Z,5.37
2023-03-28T21:19:49.987Z,5.00
2023-03-28T21:23:32.928Z,4.94
2023-03-28T21:27:15.732Z,4.90
2023-03-28T21:30:59.603Z,4.86
2023-03-28T21:34:44.720Z,4.82
2023-03-28T21:38:27.593Z,4.76
2023-03-28T21:42:10.274Z,4.68
2023-03-28T21:45:53.857Z,4.59
2023-03-28T21:49:37.562Z,4.46
2023-03-28T21:53:22.120Z,4.40
2023-03-28T21:57:04.856Z,4.38
2023-03-28T22:00:47.925Z,4.37
2023-03-28T22:04:30.756Z,4.36
2023-03-28T22:08:13.983Z,4.36
2023-03-28T22:11:58.096Z,4.36
2023-03-28T22:15:41.154Z,4.36
2023-03-28T22:19:25.077Z,4.33
2023-03-28T22:23:08.922Z,4.34
2023-03-28T22:26:51.699Z,4.31
2023-03-28T22:30:37.325Z,4.21
2023-03-28T22:34:21.010Z,4.10
2023-03-28T22:38:04.610Z,4.05
2023-03-28T22:41:47.322Z,4.05
2023-03-28T22:45:30.099Z,4.04
2023-03-28T22:49:21.893Z,4.02
2023-03-28T22:53:04.580Z,3.93
2023-03-28T22:56:47.453Z,3.86
2023-03-28T23:00:30.099Z,3.86
2023-03-28T23:04:14.144Z,3.89
2023-03-28T23:07:57.686Z,3.88
2023-03-28T23:11:41.008Z,3.89
2023-03-28T23:15:23.664Z,3.89
2023-03-28T23:19:07.274Z,3.85
2023-03-28T23:22:53.347Z,3.85
2023-03-28T23:26:35.983Z,3.81
2023-03-28T23:30:18.806Z,3.74
2023-03-28T23:34:01.642Z,3.74
2023-03-28T23:37:44.735Z,3.81
2023-03-28T23:41:28.729Z,3.85
2023-03-28T23:45:12.129Z,3.90
2023-03-28T23:48:54.749Z,3.95
2023-03-28T23:52:37.785Z,4.00
2023-03-28T23:56:20.480Z,3.99
